Time;durP1;ratioP1;P1;durP2;ratioP2;P2;SDS_P1;SDS_P2;PMS_P1;PMS_P2;Temp;Humidity;BMP_temperature;BMP_pressure;BME280_temperature;BME280_humidity;BME280_pressure;Samples;Min_cycle;Max_cycle;Signal;HPM_P1;HPM_P2
2021/05/29 00:00:37;;;;;;;10.80;9.70;;;;;20.50;101263.00;;;;2043773;28;20736;-49
2021/05/29 00:01:37;;;;;;;10.27;9.27;;;;;20.50;101265.00;;;;2041000;29;20220;-49
2021/05/29 00:02:37;;;;;;;9.80;8.80;;;;;20.50;101263.00;;;;2054432;28;20233;-50
2021/05/29 00:03:38;;;;;;;10.43;9.43;;;;;20.50;101267.00;;;;2054780;28;20267;-49
2021/05/29 00:04:38;;;;;;;10.60;9.53;;;;;20.50;101265.00;;;;2054689;28;20732;-49
2021/05/29 00:05:39;;;;;;;10.10;8.93;;;;;20.50;101270.00;;;;2044339;29;20224;-49
2021/05/29 00:06:39;;;;;;;9.90;8.93;;;;;20.60;101270.00;;;;2043488;29;20229;-50
2021/05/29 00:07:40;;;;;;;8.83;7.93;;;;;20.50;101268.00;;;;2047060;28;20220;-49
2021/05/29 00:08:40;;;;;;;9.17;8.27;;;;;20.50;101270.00;;;;2054405;28;20814;-49
2021/05/29 00:09:40;;;;;;;9.90;8.90;;;;;20.50;101268.00;;;;2055288;28;20636;-49
2021/05/29 00:10:43;;;;;;;10.57;8.77;;;;;20.50;101277.00;;;;2045535;28;20223;-49
2021/05/29 00:11:43;;;;;;;9.60;8.70;;;;;20.50;101268.00;;;;2048807;28;20250;-50
2021/05/29 00:12:43;;;;;;;8.20;7.40;;;;;20.50;101268.00;;;;2047010;28;20221;-49
2021/05/29 00:13:44;;;;;;;8.43;7.63;;;;;20.50;101274.00;;;;2050722;28;20295;-50
2021/05/29 00:14:47;;;;;;;9.13;8.23;;;;;20.50;101275.00;;;;2051796;28;20212;-49
2021/05/29 00:15:48;;;;;;;9.15;8.05;;;;;20.50;101274.00;;;;2051319;28;20304;-50
2021/05/29 00:16:48;;;;;;;8.40;7.60;;;;;20.50;101281.00;;;;2051036;28;20236;-49
2021/05/29 00:17:48;;;;;;;9.47;8.60;;;;;20.50;101272.00;;;;2047860;28;20694;-49
2021/05/29 00:18:49;;;;;;;9.00;8.10;;;;;20.50;101273.00;;;;2045970;28;20228;-50
2021/05/29 00:19:49;;;;;;;9.33;8.43;;;;;20.50;101275.00;;;;2047255;28;20295;-50
2021/05/29 00:20:50;;;;;;;9.37;8.47;;;;;20.50;101272.00;;;;2050803;28;20235;-50
2021/05/29 00:21:50;;;;;;;9.03;8.13;;;;;20.50;101276.00;;;;2047176;28;20229;-49
2021/05/29 00:22:50;;;;;;;8.30;7.50;;;;;20.50;101274.00;;;;2045819;28;20710;-49
2021/05/29 00:23:51;;;;;;;8.00;6.83;;;;;20.50;101272.00;;;;2046156;29;20229;-49
2021/05/29 00:24:51;;;;;;;8.57;7.77;;;;;20.50;101269.00;;;;2046620;28;20295;-50
2021/05/29 00:25:51;;;;;;;9.03;8.13;;;;;20.50;101272.00;;;;2046500;28;20698;-49
2021/05/29 00:26:52;;;;;;;8.67;7.87;;;;;20.40;101262.00;;;;2046712;28;20289;-50
2021/05/29 00:27:52;;;;;;;9.43;7.87;;;;;20.50;101272.00;;;;2038071;29;20213;-49
2021/05/29 00:28:53;;;;;;;8.53;7.73;;;;;20.50;101272.00;;;;2037888;29;20634;-50
2021/05/29 00:29:53;;;;;;;8.47;7.73;;;;;20.50;101271.00;;;;2038114;29;20225;-49
2021/05/29 00:30:53;;;;;;;8.60;7.70;;;;;20.50;101262.00;;;;2036038;29;20217;-49
2021/05/29 00:31:54;;;;;;;8.80;7.90;;;;;20.50;101271.00;;;;2045849;28;20216;-49
2021/05/29 00:32:55;;;;;;;8.33;7.53;;;;;20.50;101267.00;;;;2045863;28;20726;-49
2021/05/29 00:33:56;;;;;;;8.50;7.70;;;;;20.50;101258.00;;;;2046022;29;20232;-50
2021/05/29 00:34:56;;;;;;;8.50;7.70;;;;;20.50;101267.00;;;;2046726;28;20220;-49
2021/05/29 00:35:56;;;;;;;7.50;6.80;;;;;20.50;101265.00;;;;2048292;28;20216;-49
2021/05/29 00:36:57;;;;;;;8.10;7.30;;;;;20.50;101270.00;;;;2054181;28;20212;-49
2021/05/29 00:37:57;;;;;;;7.90;7.20;;;;;20.50;101268.00;;;;2054024;28;20736;-50
2021/05/29 00:38:57;;;;;;;8.00;7.30;;;;;20.50;101264.00;;;;2054513;28;20636;-49
2021/05/29 00:39:58;;;;;;;8.33;7.53;;;;;20.50;101254.00;;;;2054308;28;20216;-50
2021/05/29 00:40:58;;;;;;;7.60;6.90;;;;;20.50;101263.00;;;;2048031;28;20217;-49
2021/05/29 00:41:58;;;;;;;7.97;7.20;;;;;20.40;101264.00;;;;2046540;28;20264;-50
2021/05/29 00:42:59;;;;;;;8.50;7.70;;;;;20.40;101258.00;;;;2046867;28;20216;-49
2021/05/29 00:43:59;;;;;;;7.40;6.70;;;;;20.40;101255.00;;;;2054117;28;20251;-49
2021/05/29 00:45:00;;;;;;;9.30;7.47;;;;;20.40;101258.00;;;;2046464;28;20836;-49
2021/05/29 00:46:01;;;;;;;7.90;7.10;;;;;20.50;101262.00;;;;2051153;28;20559;-50
2021/05/29 00:47:03;;;;;;;7.70;6.90;;;;;20.50;101263.00;;;;2054518;28;20689;-50
2021/05/29 00:48:04;;;;;;;7.07;6.47;;;;;20.50;101251.00;;;;2048850;28;20221;-49
2021/05/29 00:49:04;;;;;;;7.57;6.87;;;;;20.50;101249.00;;;;2028344;29;20220;-50
2021/05/29 00:50:09;;;;;;;7.60;6.80;;;;;20.50;101261.00;;;;2038899;29;20457;-49
2021/05/29 00:51:10;;;;;;;7.10;6.45;;;;;20.50;101250.00;;;;2049570;28;20216;-50
2021/05/29 00:52:10;;;;;;;7.00;6.40;;;;;20.50;101256.00;;;;2050082;28;20220;-50
2021/05/29 00:53:10;;;;;;;7.13;6.53;;;;;20.50;101255.00;;;;2050000;28;20228;-50
2021/05/29 00:54:11;;;;;;;7.97;7.17;;;;;20.50;101250.00;;;;2047131;28;20216;-49
2021/05/29 00:55:13;;;;;;;7.20;6.50;;;;;20.40;101247.00;;;;2047262;28;20822;-50
2021/05/29 00:56:13;;;;;;;7.60;6.80;;;;;20.40;101255.00;;;;2046808;28;20208;-49
2021/05/29 00:57:14;;;;;;;7.60;6.93;;;;;20.40;101248.00;;;;2047064;28;20831;-49
2021/05/29 00:58:14;;;;;;;7.00;6.30;;;;;20.40;101249.00;;;;2047162;28;20299;-50
2021/05/29 00:59:15;;;;;;;7.30;6.43;;;;;20.40;101250.00;;;;2047119;28;20279;-49
2021/05/29 01:00:17;;;;;;;7.20;6.60;;;;;20.50;101244.00;;;;2041658;29;20213;-49
2021/05/29 01:01:18;;;;;;;6.40;5.85;;;;;20.50;101247.00;;;;2045414;28;20220;-49
2021/05/29 01:02:18;;;;;;;6.43;5.83;;;;;20.50;101246.00;;;;2054787;28;20212;-49
2021/05/29 01:03:18;;;;;;;7.63;6.93;;;;;20.50;101256.00;;;;2054648;28;20208;-49
2021/05/29 01:04:19;;;;;;;7.47;6.77;;;;;20.40;101251.00;;;;2054906;28;20204;-49
2021/05/29 01:05:19;;;;;;;8.20;6.27;;;;;20.40;101243.00;;;;2054969;28;20208;-49
2021/05/29 01:06:20;;;;;;;6.63;6.03;;;;;20.40;101247.00;;;;2048961;28;20213;-49
2021/05/29 01:07:20;;;;;;;6.60;6.00;;;;;20.40;101246.00;;;;2046052;28;20208;-49
2021/05/29 01:08:24;;;;;;;6.67;6.07;;;;;20.40;101246.00;;;;2046351;29;20272;-49
2021/05/29 01:09:24;;;;;;;6.60;6.00;;;;;20.40;101243.00;;;;2053213;28;20223;-49
2021/05/29 01:10:25;;;;;;;6.70;6.10;;;;;20.40;101248.00;;;;2046320;28;20216;-49
2021/05/29 01:11:25;;;;;;;6.73;6.20;;;;;20.40;101238.00;;;;2045985;28;20223;-50
2021/05/29 01:12:25;;;;;;;6.87;6.27;;;;;20.40;101245.00;;;;2046854;28;20313;-50
2021/05/29 01:13:31;;;;;;;6.50;5.90;;;;;20.40;101241.00;;;;2047738;28;20221;-50
2021/05/29 01:14:32;;;;;;;6.38;5.75;;;;;20.40;101246.00;;;;2049152;28;20894;-49
2021/05/29 01:15:41;;;;;;;6.30;5.70;;;;;20.40;101243.00;;;;2044381;28;20299;-49
2021/05/29 01:16:44;;;;;;;6.78;6.18;;;;;20.40;101241.00;;;;2049803;28;20227;-50
2021/05/29 01:17:45;;;;;;;6.57;5.97;;;;;20.40;101245.00;;;;2045734;29;20304;-50
2021/05/29 01:18:46;;;;;;;7.70;6.83;;;;;20.40;101248.00;;;;2046121;28;20970;-49
2021/05/29 01:19:46;;;;;;;6.25;5.75;;;;;20.40;101250.00;;;;2050264;28;20745;-49
2021/05/29 01:20:47;;;;;;;6.50;5.90;;;;;20.40;101246.00;;;;2043560;28;20240;-50
2021/05/29 01:21:47;;;;;;;6.10;5.43;;;;;20.40;101250.00;;;;2049113;28;20228;-49
2021/05/29 01:22:49;;;;;;;6.17;5.57;;;;;20.40;101249.00;;;;2054335;28;20562;-50
2021/05/29 01:23:49;;;;;;;6.70;6.10;;;;;20.40;101254.00;;;;2047319;28;20709;-50
2021/05/29 01:24:49;;;;;;;7.17;6.50;;;;;20.40;101260.00;;;;2046826;28;20223;-49
2021/05/29 01:25:50;;;;;;;6.00;5.40;;;;;20.40;101261.00;;;;2045984;28;20232;-49
2021/05/29 01:26:51;;;;;;;6.70;5.70;;;;;20.40;101260.00;;;;2046774;28;20212;-50
2021/05/29 01:27:55;;;;;;;5.73;5.23;;;;;20.40;101263.00;;;;2054414;28;20746;-49
2021/05/29 01:28:56;;;;;;;6.30;5.80;;;;;20.40;101274.00;;;;2054151;28;20243;-50
2021/05/29 01:29:57;;;;;;;6.27;5.67;;;;;20.40;101268.00;;;;2047856;28;20998;-49
2021/05/29 01:31:00;;;;;;;5.10;4.70;;;;;20.40;101261.00;;;;2043322;29;20495;-49
2021/05/29 01:32:02;;;;;;;7.68;5.82;;;;;20.40;101263.00;;;;2045602;28;20718;-49
2021/05/29 01:33:03;;;;;;;6.45;5.82;;;;;20.40;101266.00;;;;2046695;28;20283;-50
2021/05/29 01:34:03;;;;;;;5.90;5.30;;;;;20.40;101266.00;;;;2046625;28;20800;-49
2021/05/29 01:35:06;;;;;;;5.80;5.20;;;;;20.40;101273.00;;;;2046588;28;20606;-50
2021/05/29 01:36:08;;;;;;;5.68;5.07;;;;;20.40;101264.00;;;;2046012;28;20296;-49
2021/05/29 01:37:09;;;;;;;6.35;5.80;;;;;20.40;101264.00;;;;2046176;28;20741;-49
2021/05/29 01:38:11;;;;;;;6.03;5.33;;;;;20.40;101272.00;;;;2037805;29;20308;-49
2021/05/29 01:39:11;;;;;;;5.97;5.38;;;;;20.40;101272.00;;;;2037676;29;20225;-49
2021/05/29 01:40:11;;;;;;;5.90;5.30;;;;;20.40;101267.00;;;;2045774;28;20236;-49
2021/05/29 01:41:13;;;;;;;6.13;5.57;;;;;20.40;101271.00;;;;2052944;28;20712;-49
2021/05/29 01:42:13;;;;;;;6.45;5.85;;;;;20.40;101268.00;;;;2054115;28;20208;-49
2021/05/29 01:43:13;;;;;;;5.50;5.00;;;;;20.40;101274.00;;;;2044922;29;20635;-49
2021/05/29 01:44:14;;;;;;;5.90;5.40;;;;;20.40;101274.00;;;;2037879;29;20266;-49
2021/05/29 01:45:15;;;;;;;5.60;5.10;;;;;20.40;101265.00;;;;2043071;29;20578;-50
2021/05/29 01:46:17;;;;;;;5.90;5.40;;;;;20.40;101262.00;;;;2045061;29;20216;-49
2021/05/29 01:47:17;;;;;;;5.60;5.10;;;;;20.40;101274.00;;;;2053839;28;20869;-50
2021/05/29 01:48:19;;;;;;;5.23;4.73;;;;;20.40;101266.00;;;;2047628;28;20232;-51
2021/05/29 01:49:19;;;;;;;5.30;4.88;;;;;20.40;101267.00;;;;2044641;28;20677;-49
2021/05/29 01:50:20;;;;;;;5.90;5.40;;;;;20.40;101270.00;;;;2053638;28;20216;-50
2021/05/29 01:51:22;;;;;;;6.60;6.00;;;;;20.40;101278.00;;;;2047384;28;20212;-49
2021/05/29 01:52:52;;;;;;;5.15;4.75;;;;;20.40;101277.00;;;;2047579;28;20224;-49
2021/05/29 01:53:53;;;;;;;5.57;5.10;;;;;20.40;101280.00;;;;2042285;29;20225;-49
2021/05/29 01:54:53;;;;;;;5.50;5.00;;;;;20.40;101278.00;;;;2046189;28;20260;-51
2021/05/29 01:55:53;;;;;;;5.33;4.80;;;;;20.40;101282.00;;;;2048770;28;20582;-49
2021/05/29 01:56:56;;;;;;;5.40;4.90;;;;;20.40;101278.00;;;;2048030;28;20239;-49
2021/05/29 01:57:57;;;;;;;5.70;5.18;;;;;20.40;101278.00;;;;2046113;28;20621;-50
2021/05/29 01:58:57;;;;;;;5.80;5.30;;;;;20.40;101288.00;;;;2046023;28;20216;-50
2021/05/29 01:59:58;;;;;;;6.00;5.10;;;;;20.40;101278.00;;;;2045552;28;20299;-49
2021/05/29 02:00:58;;;;;;;5.60;5.10;;;;;20.40;101283.00;;;;2045495;28;20220;-49
2021/05/29 02:01:58;;;;;;;5.33;4.83;;;;;20.40;101043.00;;;;2045936;28;20220;-49
2021/05/29 02:02:59;;;;;;;5.90;5.00;;;;;20.40;101286.00;;;;2046629;28;20251;-49
2021/05/29 02:03:59;;;;;;;5.27;4.87;;;;;20.40;101289.00;;;;2051336;28;20737;-49
2021/05/29 02:05:08;;;;;;;5.50;5.00;;;;;20.40;101262.00;;;;2048973;28;20299;-50
2021/05/29 02:06:08;;;;;;;6.22;5.68;;;;;20.40;101287.00;;;;2046738;28;20307;-49
2021/05/29 02:07:09;;;;;;;5.60;5.10;;;;;20.40;101281.00;;;;2050837;28;20220;-50
2021/05/29 02:08:10;;;;;;;5.30;4.80;;;;;20.40;101288.00;;;;2046140;28;20221;-49
2021/05/29 02:09:10;;;;;;;5.00;4.60;;;;;20.40;101291.00;;;;2045623;28;20224;-49
2021/05/29 02:10:13;;;;;;;5.33;4.90;;;;;20.40;101287.00;;;;2046201;28;20618;-50
2021/05/29 02:11:13;;;;;;;5.25;4.75;;;;;20.30;101295.00;;;;2041556;28;20276;-49
2021/05/29 02:12:14;;;;;;;5.33;4.83;;;;;20.30;101291.00;;;;2045887;28;20216;-50
2021/05/29 02:13:25;;;;;;;5.60;5.10;;;;;20.30;101281.00;;;;2045990;28;20224;-50
2021/05/29 02:14:25;;;;;;;5.97;5.38;;;;;20.30;101288.00;;;;2044348;29;20217;-50
2021/05/29 02:15:30;;;;;;;5.20;4.70;;;;;20.40;101277.00;;;;2040899;29;20221;-50
2021/05/29 02:16:31;;;;;;;5.55;5.05;;;;;20.40;101287.00;;;;2048773;28;20220;-50
2021/05/29 02:17:31;;;;;;;5.43;4.93;;;;;20.40;101299.00;;;;2044747;28;20209;-50
2021/05/29 02:18:32;;;;;;;5.47;4.87;;;;;20.30;101289.00;;;;2046138;28;20223;-50
2021/05/29 02:19:32;;;;;;;4.80;4.40;;;;;20.30;101284.00;;;;2045721;28;20209;-50
2021/05/29 02:20:46;;;;;;;5.43;4.93;;;;;20.30;101292.00;;;;2036138;29;20217;-50
2021/05/29 02:21:47;;;;;;;5.72;5.22;;;;;20.30;101288.00;;;;2043695;28;20593;-50
2021/05/29 02:22:48;;;;;;;5.43;4.80;;;;;20.30;101279.00;;;;2054294;28;20232;-49
2021/05/29 02:23:50;;;;;;;5.30;4.82;;;;;20.30;101296.00;;;;2054478;28;20566;-49
2021/05/29 02:24:50;;;;;;;6.82;5.05;;;;;20.30;101287.00;;;;2054194;28;20660;-50
2021/05/29 02:25:51;;;;;;;4.90;4.50;;;;;20.40;101292.00;;;;2049167;28;20212;-49
2021/05/29 02:26:52;;;;;;;5.25;4.80;;;;;20.30;101286.00;;;;2046205;28;20256;-49
2021/05/29 02:27:52;;;;;;;5.50;5.00;;;;;20.40;101288.00;;;;2045104;28;20698;-50
2021/05/29 02:28:56;;;;;;;5.40;4.90;;;;;20.40;101285.00;;;;2046512;28;20220;-49
2021/05/29 02:29:56;;;;;;;4.95;4.53;;;;;20.30;101280.00;;;;2050445;28;20223;-50
2021/05/29 02:30:57;;;;;;;4.60;4.20;;;;;20.40;101285.00;;;;2053075;28;20220;-49
2021/05/29 02:31:57;;;;;;;4.73;4.33;;;;;20.30;101283.00;;;;2053189;28;20214;-50
2021/05/29 02:32:57;;;;;;;5.27;4.50;;;;;20.30;101287.00;;;;2052814;28;20756;-49
2021/05/29 02:33:58;;;;;;;4.87;4.43;;;;;20.30;101291.00;;;;2048185;28;20733;-49
2021/05/29 02:34:58;;;;;;;5.00;4.60;;;;;20.30;101285.00;;;;2047012;28;20212;-50
2021/05/29 02:35:59;;;;;;;5.00;4.60;;;;;20.30;101294.00;;;;2045942;28;20216;-50
2021/05/29 02:36:59;;;;;;;4.43;4.03;;;;;20.30;101284.00;;;;2052583;28;20212;-50
2021/05/29 02:38:00;;;;;;;4.73;4.33;;;;;20.30;101287.00;;;;2046572;28;20223;-49
2021/05/29 02:39:00;;;;;;;4.77;4.37;;;;;20.30;101282.00;;;;2045306;28;20682;-50
2021/05/29 02:40:00;;;;;;;5.23;4.73;;;;;20.30;101281.00;;;;2045917;28;20214;-50
2021/05/29 02:41:02;;;;;;;5.70;4.60;;;;;20.30;101284.00;;;;2045917;28;20223;-49
2021/05/29 02:42:03;;;;;;;4.25;3.85;;;;;20.30;101289.00;;;;2053695;28;20580;-49
2021/05/29 02:43:03;;;;;;;5.23;4.73;;;;;20.30;101280.00;;;;2053512;28;20216;-50
2021/05/29 02:44:04;;;;;;;4.30;4.00;;;;;20.30;101279.00;;;;2053682;28;20308;-50
2021/05/29 02:45:05;;;;;;;4.97;4.57;;;;;20.30;101277.00;;;;2053963;28;20216;-50
2021/05/29 02:46:05;;;;;;;5.07;4.67;;;;;20.30;101280.00;;;;2051889;28;20290;-50
2021/05/29 02:47:06;;;;;;;4.67;4.27;;;;;20.30;101284.00;;;;2054040;28;20478;-50
2021/05/29 02:48:10;;;;;;;4.70;4.30;;;;;20.30;101280.00;;;;2054050;28;20323;-50
2021/05/29 02:49:11;;;;;;;5.43;4.93;;;;;20.30;101282.00;;;;2054312;28;20220;-49
2021/05/29 02:50:11;;;;;;;4.93;4.53;;;;;20.30;101277.00;;;;2054238;28;20212;-50
2021/05/29 02:51:12;;;;;;;4.97;4.57;;;;;20.30;101273.00;;;;2042075;29;20255;-50
2021/05/29 02:52:12;;;;;;;6.30;4.10;;;;;20.30;101274.00;;;;2038940;29;20209;-49
2021/05/29 02:53:14;;;;;;;4.57;4.17;;;;;20.30;101279.00;;;;2053207;28;20781;-49
2021/05/29 02:54:15;;;;;;;4.60;4.20;;;;;20.30;101273.00;;;;2053825;28;20233;-49
2021/05/29 02:55:22;;;;;;;4.40;4.10;;;;;20.30;101278.00;;;;2053813;28;20727;-49
2021/05/29 02:56:22;;;;;;;5.10;4.70;;;;;20.30;101284.00;;;;2050135;28;20216;-49
2021/05/29 02:57:22;;;;;;;4.40;3.97;;;;;20.30;101283.00;;;;2045333;28;20296;-49
2021/05/29 02:58:23;;;;;;;4.80;4.40;;;;;20.30;101272.00;;;;2045759;28;20204;-49
2021/05/29 02:59:23;;;;;;;4.03;3.63;;;;;20.30;101285.00;;;;2045669;28;20716;-50
2021/05/29 03:00:29;;;;;;;4.67;4.17;;;;;20.30;101283.00;;;;2045396;28;20304;-49
2021/05/29 03:01:29;;;;;;;4.60;4.22;;;;;20.30;101281.00;;;;2049149;28;20220;-49
2021/05/29 03:02:29;;;;;;;4.87;4.10;;;;;20.30;101280.00;;;;2054805;28;20233;-49
2021/05/29 03:03:30;;;;;;;4.63;4.33;;;;;20.30;101272.00;;;;2055472;28;20291;-49
2021/05/29 03:04:30;;;;;;;4.53;4.13;;;;;20.30;101276.00;;;;2048046;28;20201;-49
2021/05/29 03:05:31;;;;;;;4.60;4.20;;;;;20.30;101276.00;;;;2050771;28;20685;-49
2021/05/29 03:06:31;;;;;;;4.27;3.87;;;;;20.30;101278.00;;;;2054616;28;20649;-52
2021/05/29 03:07:32;;;;;;;4.57;4.20;;;;;20.30;101276.00;;;;2049902;28;20682;-50
2021/05/29 03:08:32;;;;;;;5.20;4.20;;;;;20.30;101274.00;;;;2047591;28;20209;-51
2021/05/29 03:09:33;;;;;;;4.87;4.47;;;;;20.30;101278.00;;;;2046994;28;20717;-49
2021/05/29 03:10:34;;;;;;;4.68;4.15;;;;;20.30;101274.00;;;;2045142;28;20705;-50
2021/05/29 03:11:39;;;;;;;4.43;4.03;;;;;20.30;101268.00;;;;2046441;28;20243;-49
2021/05/29 03:12:39;;;;;;;4.72;4.32;;;;;20.30;101279.00;;;;2047229;28;20228;-50
2021/05/29 03:13:40;;;;;;;4.13;3.73;;;;;20.30;101273.00;;;;2047848;28;20227;-49
2021/05/29 03:14:40;;;;;;;4.37;3.90;;;;;20.30;101280.00;;;;2047673;28;20223;-49
2021/05/29 03:15:40;;;;;;;4.50;4.20;;;;;20.30;101272.00;;;;2047355;28;20217;-49
2021/05/29 03:16:41;;;;;;;4.67;4.27;;;;;20.30;101263.00;;;;2047386;28;20217;-49
2021/05/29 03:17:42;;;;;;;4.60;4.20;;;;;20.30;101271.00;;;;2038664;29;20232;-49
2021/05/29 03:18:43;;;;;;;4.35;3.63;;;;;20.30;101268.00;;;;2039051;29;20227;-49
2021/05/29 03:19:43;;;;;;;4.60;4.20;;;;;20.30;101285.00;;;;2046998;28;20232;-49
2021/05/29 03:20:43;;;;;;;4.53;3.83;;;;;20.30;101266.00;;;;2046734;28;20673;-49
2021/05/29 03:21:44;;;;;;;4.03;3.73;;;;;20.30;101274.00;;;;2053674;28;20593;-49
2021/05/29 03:22:44;;;;;;;4.10;3.80;;;;;20.30;101280.00;;;;2055634;28;20274;-49
2021/05/29 03:23:45;;;;;;;4.30;3.90;;;;;20.30;101272.00;;;;2048577;28;20900;-50
2021/05/29 03:24:45;;;;;;;4.00;3.60;;;;;20.20;101277.00;;;;2047994;28;20454;-49
2021/05/29 03:25:45;;;;;;;4.73;4.33;;;;;20.30;101273.00;;;;2045244;28;20236;-49
2021/05/29 03:26:46;;;;;;;4.43;3.63;;;;;20.30;101280.00;;;;2046790;28;20235;-50
2021/05/29 03:27:47;;;;;;;5.47;4.07;;;;;20.30;101280.00;;;;2051739;28;20232;-49
2021/05/29 03:28:47;;;;;;;5.60;4.28;;;;;20.30;101280.00;;;;2055041;28;20661;-49
2021/05/29 03:29:48;;;;;;;3.83;3.53;;;;;20.30;101283.00;;;;2054789;28;20240;-50
2021/05/29 03:30:48;;;;;;;4.83;4.17;;;;;20.30;101280.00;;;;2052755;28;20271;-49
2021/05/29 03:31:49;;;;;;;3.67;3.37;;;;;20.30;101282.00;;;;2048593;28;20740;-50
2021/05/29 03:32:50;;;;;;;4.60;4.20;;;;;20.30;101280.00;;;;2048408;28;20303;-49
2021/05/29 03:33:50;;;;;;;4.13;3.75;;;;;20.20;101281.00;;;;2047016;28;20217;-50
2021/05/29 03:34:50;;;;;;;4.17;3.87;;;;;20.20;101280.00;;;;2054582;28;20216;-49
2021/05/29 03:35:51;;;;;;;3.90;3.60;;;;;20.30;101283.00;;;;2054914;28;20216;-49
2021/05/29 03:36:51;;;;;;;3.90;3.60;;;;;20.20;101279.00;;;;2049011;28;20291;-49
2021/05/29 03:37:51;;;;;;;3.90;3.60;;;;;20.20;101287.00;;;;2049904;28;20268;-49
2021/05/29 03:38:52;;;;;;;4.13;3.63;;;;;20.30;101293.00;;;;2047060;28;20216;-53
2021/05/29 03:39:52;;;;;;;4.00;3.70;;;;;20.30;101292.00;;;;2047252;28;20221;-50
2021/05/29 03:40:52;;;;;;;3.73;3.43;;;;;20.30;101288.00;;;;2047050;28;20244;-49
2021/05/29 03:41:53;;;;;;;4.63;4.23;;;;;20.30;101295.00;;;;2046273;28;20227;-50
2021/05/29 03:42:53;;;;;;;3.87;3.57;;;;;20.30;101297.00;;;;2046552;28;20229;-49
2021/05/29 03:43:53;;;;;;;3.80;3.50;;;;;20.20;101291.00;;;;2046446;28;20295;-49
2021/05/29 03:44:54;;;;;;;3.93;3.60;;;;;20.20;101287.00;;;;2047675;28;20217;-50
2021/05/29 03:45:54;;;;;;;4.30;3.90;;;;;20.20;101289.00;;;;2045786;28;20310;-49
2021/05/29 03:46:54;;;;;;;3.50;3.20;;;;;20.20;101285.00;;;;2054641;28;20212;-49
2021/05/29 03:47:55;;;;;;;4.23;3.80;;;;;20.30;101287.00;;;;2049390;28;20221;-49
2021/05/29 03:48:55;;;;;;;3.67;3.37;;;;;20.20;101292.00;;;;2049074;28;20228;-49
2021/05/29 03:49:55;;;;;;;4.37;3.97;;;;;20.30;101292.00;;;;2047759;28;20875;-50
2021/05/29 03:50:56;;;;;;;4.70;4.30;;;;;20.20;101296.00;;;;2047498;28;20640;-49
2021/05/29 03:51:56;;;;;;;3.60;3.30;;;;;20.20;101297.00;;;;2038107;29;20218;-49
2021/05/29 03:52:56;;;;;;;3.77;3.47;;;;;20.20;101300.00;;;;2038815;29;20259;-49
2021/05/29 03:53:57;;;;;;;3.40;3.10;;;;;20.20;101294.00;;;;2047398;28;20296;-49
2021/05/29 03:54:57;;;;;;;4.03;3.63;;;;;20.20;101302.00;;;;2047679;28;20220;-49
2021/05/29 03:55:57;;;;;;;4.73;4.23;;;;;20.20;101302.00;;;;2046800;28;20571;-49
2021/05/29 03:56:58;;;;;;;3.63;3.33;;;;;20.20;101302.00;;;;2047645;28;20217;-50
2021/05/29 03:57:58;;;;;;;4.10;3.70;;;;;20.20;101296.00;;;;2047551;28;20216;-50
2021/05/29 03:59:02;;;;;;;3.83;3.53;;;;;20.20;101301.00;;;;2038843;29;20382;-49
2021/05/29 04:00:05;;;;;;;3.55;3.25;;;;;20.30;101306.00;;;;2038835;29;20316;-49
2021/05/29 04:01:05;;;;;;;4.25;3.40;;;;;20.20;101300.00;;;;2046226;28;20217;-49
2021/05/29 04:02:05;;;;;;;3.60;3.30;;;;;20.20;101302.00;;;;2055126;28;20697;-49
2021/05/29 04:03:06;;;;;;;3.73;3.43;;;;;20.20;101306.00;;;;2040783;29;20225;-49
2021/05/29 04:04:07;;;;;;;3.67;3.37;;;;;20.20;101299.00;;;;2039119;29;20233;-49
2021/05/29 04:05:08;;;;;;;4.05;3.70;;;;;20.20;101302.00;;;;2048315;28;20220;-49
2021/05/29 04:06:09;;;;;;;4.10;3.63;;;;;20.20;101315.00;;;;2047079;28;20674;-49
2021/05/29 04:07:09;;;;;;;3.83;3.53;;;;;20.20;101306.00;;;;2051590;28;20270;-49
2021/05/29 04:08:09;;;;;;;3.60;3.30;;;;;20.20;101306.00;;;;2055303;28;20251;-50
2021/05/29 04:09:11;;;;;;;3.60;3.30;;;;;20.20;101306.00;;;;2050852;28;20320;-49
2021/05/29 04:10:13;;;;;;;3.78;3.20;;;;;20.20;101304.00;;;;2046755;29;20217;-50
2021/05/29 04:11:14;;;;;;;3.60;3.30;;;;;20.20;101303.00;;;;2044547;29;20216;-51
2021/05/29 04:12:14;;;;;;;4.20;3.80;;;;;20.20;101311.00;;;;2050290;28;20216;-51
2021/05/29 04:13:15;;;;;;;3.80;3.40;;;;;20.20;101308.00;;;;2049493;28;20307;-49
2021/05/29 04:14:16;;;;;;;3.50;3.10;;;;;20.20;101306.00;;;;2048993;28;20626;-50
2021/05/29 04:15:16;;;;;;;3.67;3.37;;;;;20.20;101314.00;;;;2047376;28;20219;-50
2021/05/29 04:16:17;;;;;;;5.70;3.53;;;;;20.20;101306.00;;;;2041302;28;20303;-50
2021/05/29 04:17:17;;;;;;;3.33;3.13;;;;;20.20;101312.00;;;;2047029;28;20312;-50
2021/05/29 04:18:17;;;;;;;3.53;3.27;;;;;20.20;101312.00;;;;2046948;28;20227;-50
2021/05/29 04:19:18;;;;;;;4.50;3.20;;;;;20.20;101320.00;;;;2049755;28;20716;-50
2021/05/29 04:20:19;;;;;;;3.97;3.67;;;;;20.20;101318.00;;;;2046989;28;20227;-49
2021/05/29 04:21:20;;;;;;;4.07;3.67;;;;;20.20;101315.00;;;;2049476;28;20228;-50
2021/05/29 04:22:20;;;;;;;3.47;3.17;;;;;20.20;101314.00;;;;2045703;28;20781;-49
2021/05/29 04:23:20;;;;;;;4.10;3.80;;;;;20.20;101322.00;;;;2046126;29;20213;-50
2021/05/29 04:24:21;;;;;;;4.03;3.73;;;;;20.20;101324.00;;;;2051728;28;20255;-50
2021/05/29 04:25:23;;;;;;;3.77;3.37;;;;;20.20;101319.00;;;;2046944;28;20212;-50
2021/05/29 04:26:23;;;;;;;4.22;3.83;;;;;20.20;101327.00;;;;2044094;28;20221;-49
2021/05/29 04:27:24;;;;;;;3.40;3.10;;;;;20.20;101330.00;;;;2046634;28;20224;-49
2021/05/29 04:28:24;;;;;;;3.20;3.00;;;;;20.20;101327.00;;;;2046845;28;20721;-49
2021/05/29 04:29:25;;;;;;;4.00;3.60;;;;;20.20;101328.00;;;;2047354;28;20904;-49
2021/05/29 04:30:27;;;;;;;3.20;2.90;;;;;20.20;101329.00;;;;2046839;28;20216;-49
2021/05/29 04:31:27;;;;;;;5.85;3.40;;;;;20.20;101326.00;;;;2046049;28;20213;-49
2021/05/29 04:32:28;;;;;;;4.87;3.57;;;;;20.20;101330.00;;;;2040895;29;20213;-49
2021/05/29 04:33:28;;;;;;;3.43;3.17;;;;;20.20;101331.00;;;;2046251;29;21244;-50
2021/05/29 04:34:29;;;;;;;3.70;3.37;;;;;20.20;101337.00;;;;2052295;28;20624;-49
2021/05/29 04:35:29;;;;;;;3.17;2.90;;;;;20.20;101331.00;;;;2047143;28;20213;-49
2021/05/29 04:36:29;;;;;;;3.03;2.83;;;;;20.20;101327.00;;;;2044514;28;20208;-49
2021/05/29 04:37:30;;;;;;;3.10;2.90;;;;;20.20;101331.00;;;;2046749;28;20304;-49
2021/05/29 04:38:30;;;;;;;3.70;3.40;;;;;20.20;101327.00;;;;2046541;28;20213;-49
2021/05/29 04:39:31;;;;;;;3.23;3.03;;;;;20.20;101335.00;;;;2046296;28;20686;-50
2021/05/29 04:40:31;;;;;;;3.30;3.00;;;;;20.20;101329.00;;;;2046368;28;20240;-49
2021/05/29 04:41:32;;;;;;;3.60;3.30;;;;;20.20;101332.00;;;;2045651;28;20201;-50
2021/05/29 04:42:32;;;;;;;3.37;3.10;;;;;20.20;101332.00;;;;2046517;28;20223;-50
2021/05/29 04:43:33;;;;;;;3.50;3.23;;;;;20.20;101335.00;;;;2038380;29;20272;-49
2021/05/29 04:44:33;;;;;;;3.20;3.00;;;;;20.20;101336.00;;;;2038530;29;20698;-49
2021/05/29 04:45:34;;;;;;;3.63;3.33;;;;;20.20;101336.00;;;;2050203;28;20219;-49
2021/05/29 04:46:39;;;;;;;3.50;3.20;;;;;20.20;101334.00;;;;2055082;28;20712;-49
2021/05/29 04:47:40;;;;;;;3.72;3.42;;;;;20.20;101338.00;;;;2054749;28;20224;-50
2021/05/29 04:48:40;;;;;;;3.22;3.00;;;;;20.20;101341.00;;;;2055024;28;20226;-50
2021/05/29 04:49:40;;;;;;;3.80;3.50;;;;;20.30;101336.00;;;;2041838;29;20225;-50
2021/05/29 04:52:00;;;;;;;3.20;2.90;;;;;20.00;101344.00;;;;2044416;28;20208;-49
2021/05/29 04:53:00;;;;;;;5.03;3.37;;;;;20.20;101347.00;;;;2047009;28;20279;-50
2021/05/29 04:54:01;;;;;;;3.63;3.17;;;;;20.20;101340.00;;;;2047154;28;20685;-49
2021/05/29 04:55:01;;;;;;;3.37;3.10;;;;;20.20;101346.00;;;;2047047;28;20669;-50
2021/05/29 04:56:01;;;;;;;3.63;3.33;;;;;20.20;101352.00;;;;2044085;28;20220;-50
2021/05/29 04:57:02;;;;;;;3.47;3.17;;;;;20.20;101352.00;;;;2053171;28;20216;-50
2021/05/29 04:58:02;;;;;;;3.93;3.60;;;;;20.20;101352.00;;;;2055039;28;20275;-49
2021/05/29 04:59:02;;;;;;;3.67;3.37;;;;;20.20;101351.00;;;;2054813;28;20219;-49
2021/05/29 05:00:05;;;;;;;3.50;3.13;;;;;20.20;101355.00;;;;2051701;28;20225;-49
2021/05/29 05:01:06;;;;;;;3.35;3.05;;;;;20.20;101355.00;;;;2048366;28;20814;-50
2021/05/29 05:02:06;;;;;;;3.60;3.30;;;;;20.20;101356.00;;;;2045777;28;20212;-49
2021/05/29 05:03:07;;;;;;;3.63;3.33;;;;;20.20;101350.00;;;;2046003;29;21291;-49